Historyczne dane pomiarowe

Dodano dane terminowe – wersja testowa.

Dane z okresu 1951-2019

Wersja bazy: 1.34 [2019-03-16, lista zmian], aktualizacja planowana na 2019-04-15

Dane meteo z obszaru Polski uzyskane na podstawie danych udostępnionych przez Instytut Meteorologii i Gospodarki Wodnej – Państwowy Instytut Badawczy.

 

Wybierz Datę:    

       

TemperaturaWilgotnośćWiatrCiśnienieOpadyŚniegCzas trwania zjawisk
 Stacja t tx tn tng RH VA  wxwx mslp ppp RRR   cm mm wxwxwxwxwxwxwx
1994-08-14 16.0 19.9 13.7 12.8 57.0- 3.3 2.3---- 0.0------------
1994-08-13 17.6 23.8 15.4 15.1 84.0- 6.0 2.0---- 1.5------------
1994-08-12 17.8 20.4 15.2 14.1 81.8- 7.3 2.0---- 1.7------------
1994-08-11 18.8 22.6 15.8 15.8 90.5- 6.0 1.0---- 8.6------------
1994-08-10 20.7 27.4 14.2 13.3 71.8- 0.3 0.0---- 20.1------------
1994-08-09 19.9 23.2 18.4 18.4 89.8- 8.0 1.3---- 10.6------------
1994-08-08 23.0 29.9 18.7 18.5 78.3- 4.3 1.0---- 1.8------------
1994-08-07 24.2 32.7 18.2 18.2 68.0- 4.0 0.3---- 15.5------------
1994-08-06 24.4 34.2 15.2 13.1 55.3- 2.3 0.3---- 0.0------------
1994-08-05 24.1 32.1 17.3 15.1 61.5- 0.7 1.3---- 0.0------------
1994-08-04 23.4 29.4 18.4 17.4 71.8- 3.0 1.0---- 0.0------------
1994-08-03 25.3 33.2 21.1 19.3 60.3- 5.0 1.3---- 0.2------------
1994-08-02 25.6 32.1 18.4 16.2 53.3- 6.0 0.7---- 0.0------------
1994-08-01 27.0 36.4 18.4 16.6 49.8- 3.0 0.0---- 0.0------------
1994-07-31 26.3 35.7 17.3 15.1 51.5- 0.3 0.3---- 0.0------------
1994-07-30 25.6 35.6 15.9 13.7 47.0- 0.3 0.3---- 0.0------------
1994-07-29 25.1 34.7 15.5 13.5 51.0- 0.0 1.0---- 0.0------------
1994-07-28 24.9 34.6 15.6 13.3 54.5- 1.0 1.0---- 0.0------------
1994-07-27 24.5 34.0 15.7 13.7 51.8- 3.3 0.3---- 0.0------------
1994-07-26 24.7 33.7 16.4 14.6 52.8- 0.7 0.3---- 0.0------------
1994-07-25 23.4 32.7 14.8 13.0 52.5- 0.7 0.3---- 0.0------------
1994-07-24 22.5 31.4 14.1 12.0 54.8- 0.7 1.0---- 0.0------------
1994-07-23 21.5 29.6 13.2 11.5 59.3- 2.3 0.7---- 0.0------------
1994-07-22 21.7 30.0 12.4 9.9 57.0- 0.7 1.0---- 0.0------------
1994-07-21 19.6 27.7 11.8 10.1 61.8- 0.7 0.3---- 0.0------------
1994-07-20 19.4 25.2 12.8 11.0 59.5- 2.3 1.7---- 0.0------------
1994-07-19 20.5 24.9 15.7 14.3 80.3- 6.3 1.3---- 0.0------------
1994-07-18 20.4 26.5 17.2 17.2 86.0- 4.0 0.7---- 1.9------------
1994-07-17 22.3 30.8 17.9 17.7 76.3- 5.0 0.3---- 18.8------------
1994-07-16 23.2 31.2 16.5 14.6 66.5- 3.7 1.3---- 0.0------------
1994-07-15 22.2 28.7 15.6 14.0 70.5- 3.3 0.3---- 0.0------------
1994-07-14 22.6 30.2 15.2 13.5 66.5- 5.7 1.0---- 0.0------------
1994-07-13 21.4 28.7 14.4 12.6 67.0- 4.7 0.7---- 0.0------------
1994-07-12 21.4 27.1 17.2 15.9 71.8- 4.3 0.3---- 0.0------------
1994-07-11 19.0 25.9 13.7 13.1 76.5- 4.7 0.7---- 0.0------------
1994-07-10 16.9 22.7 12.7 12.7 78.8- 6.0 0.7---- 1.4------------
1994-07-09 15.5 17.5 13.6 13.5 76.0- 7.0 2.3---- 10.1------------
1994-07-08 17.5 22.3 15.2 14.6 71.5- 3.3 2.7---- 0.0------------
1994-07-07 19.9 26.9 13.2 11.2 66.5- 6.7 0.7---- 4.6------------
1994-07-06 20.6 27.4 13.9 12.0 62.5- 2.7 1.0---- 0.0------------
1994-07-05 21.6 26.9 15.5 13.5 56.5- 6.0 1.3---- 0.9------------
1994-07-04 21.8 30.1 12.1 10.0 57.5- 0.7 0.3---- 0.0------------
1994-07-03 20.0 28.2 11.4 9.4 58.3- 0.3 0.7---- 0.0------------
1994-07-02 20.0 26.8 12.3 10.3 60.3- 0.7 1.0---- 0.0------------
1994-07-01 20.9 26.1 16.6 16.6 61.0- 2.0 1.7---- 0.0------------
1994-06-30 23.7 28.6 20.7 19.5 70.3- 4.7 1.7---- 0.0------------
1994-06-29 25.5 32.6 18.5 17.0 67.8- 3.0 1.3---- 0.0------------
1994-06-28 26.1 32.0 19.6 17.7 63.8- 3.3 1.0---- 0.0------------
1994-06-27 25.7 33.5 18.3 16.5 65.3- 3.0 1.0---- 0.0------------
1994-06-26 21.3 31.3 10.2 7.9 64.3- 0.3 0.3---- 0.0------------
1994-06-25 16.6 24.7 6.7 4.4 55.5- 0.0 1.7---- 0.0------------
1994-06-24 15.6 22.1 8.8 6.6 50.8- 0.7 2.7---- 0.0------------
1994-06-23 19.4 24.6 17.2 16.7 51.8- 2.7 2.3---- 0.0------------
1994-06-22 19.7 27.3 10.7 8.2 64.3- 3.7 2.7---- 0.2------------
1994-06-21 16.5 23.8 9.1 6.5 63.3- 2.7 1.0---- 0.0------------
1994-06-20 17.1 22.7 11.9 9.5 70.3- 3.3 2.0---- 0.0------------
1994-06-19 18.1 26.3 11.8 11.2 68.8- 5.3 1.7---- 0.0------------
1994-06-18 13.8 21.1 6.0 3.8 65.8- 5.0 2.3---- 11.4------------
1994-06-17 12.4 16.8 9.9 9.3 68.5- 5.0 2.7---- 0.0------------
1994-06-16 14.3 17.7 10.2 7.9 66.5- 7.0 1.7---- 3.1------------
220.4 ms

 

Źródłem pochodzenia danych jest Instytut Meteorologii i Gospodarki Wodnej – Państwowy Instytut Badawczy. Dane Instytutu Meteorologii i Gospodarki Wodnej – Państwowego Instytutu Badawczego zostały przetworzone.

Dane źródłowe można odnaleźć na stronie https://dane.imgw.pl